sensor_id;sensor_type;location;lat;lon;timestamp;P1;durP1;ratioP1;P2;durP2;ratioP2
18879;SDS011;9572;52.378;13.404;2023-10-09T00:01:49;1.50;;;1.40;;
18879;SDS011;9572;52.378;13.404;2023-10-09T00:04:18;2.90;;;1.88;;
18879;SDS011;9572;52.378;13.404;2023-10-09T00:19:37;3.08;;;1.88;;
18879;SDS011;9572;52.378;13.404;2023-10-09T00:22:04;4.22;;;1.77;;
18879;SDS011;9572;52.378;13.404;2023-10-09T00:24:51;2.67;;;1.90;;
18879;SDS011;9572;52.378;13.404;2023-10-09T00:27:36;4.35;;;1.55;;
18879;SDS011;9572;52.378;13.404;2023-10-09T00:30:07;3.50;;;2.03;;
18879;SDS011;9572;52.378;13.404;2023-10-09T00:32:36;5.05;;;2.50;;
18879;SDS011;9572;52.378;13.404;2023-10-09T00:35:18;4.82;;;2.35;;
18879;SDS011;9572;52.378;13.404;2023-10-09T00:37:59;2.03;;;1.80;;
18879;SDS011;9572;52.378;13.404;2023-10-09T00:40:40;3.35;;;1.88;;
18879;SDS011;9572;52.378;13.404;2023-10-09T00:43:12;4.28;;;1.80;;
18879;SDS011;9572;52.378;13.404;2023-10-09T00:45:40;3.08;;;1.70;;
18879;SDS011;9572;52.378;13.404;2023-10-09T00:48:09;3.00;;;1.70;;
18879;SDS011;9572;52.378;13.404;2023-10-09T00:50:42;3.53;;;1.90;;
18879;SDS011;9572;52.378;13.404;2023-10-09T00:53:17;4.07;;;1.88;;
18879;SDS011;9572;52.378;13.404;2023-10-09T00:55:55;3.05;;;1.77;;
18879;SDS011;9572;52.378;13.404;2023-10-09T00:58:23;1.98;;;1.65;;
18879;SDS011;9572;52.378;13.404;2023-10-09T01:00:56;3.03;;;1.90;;
18879;SDS011;9572;52.378;13.404;2023-10-09T01:03:24;5.75;;;2.17;;
18879;SDS011;9572;52.378;13.404;2023-10-09T01:05:56;6.95;;;1.88;;
18879;SDS011;9572;52.378;13.404;2023-10-09T01:08:24;2.42;;;1.98;;
18879;SDS011;9572;52.378;13.404;2023-10-09T01:10:54;3.22;;;1.83;;
18879;SDS011;9572;52.378;13.404;2023-10-09T01:13:24;2.57;;;1.67;;
18879;SDS011;9572;52.378;13.404;2023-10-09T01:16:04;5.07;;;1.57;;
18879;SDS011;9572;52.378;13.404;2023-10-09T01:18:32;3.33;;;1.75;;
18879;SDS011;9572;52.378;13.404;2023-10-09T01:21:04;3.80;;;1.60;;
18879;SDS011;9572;52.378;13.404;2023-10-09T01:23:33;2.30;;;1.70;;
18879;SDS011;9572;52.378;13.404;2023-10-09T01:26:07;5.50;;;2.20;;
18879;SDS011;9572;52.378;13.404;2023-10-09T01:28:34;1.83;;;1.60;;
18879;SDS011;9572;52.378;13.404;2023-10-09T01:31:02;2.50;;;1.83;;
18879;SDS011;9572;52.378;13.404;2023-10-09T01:33:31;3.05;;;2.03;;
18879;SDS011;9572;52.378;13.404;2023-10-09T01:36:01;3.80;;;2.03;;
18879;SDS011;9572;52.378;13.404;2023-10-09T01:38:28;4.43;;;1.88;;
18879;SDS011;9572;52.378;13.404;2023-10-09T01:41:07;2.45;;;1.65;;
18879;SDS011;9572;52.378;13.404;2023-10-09T01:43:44;5.97;;;2.60;;
18879;SDS011;9572;52.378;13.404;2023-10-09T01:46:15;2.67;;;1.75;;
18879;SDS011;9572;52.378;13.404;2023-10-09T01:48:44;3.15;;;2.00;;
18879;SDS011;9572;52.378;13.404;2023-10-09T01:51:15;4.68;;;2.00;;
18879;SDS011;9572;52.378;13.404;2023-10-09T01:53:43;3.43;;;2.00;;
18879;SDS011;9572;52.378;13.404;2023-10-09T01:58:56;3.67;;;1.77;;
18879;SDS011;9572;52.378;13.404;2023-10-09T02:01:30;3.78;;;2.05;;
18879;SDS011;9572;52.378;13.404;2023-10-09T02:03:58;3.25;;;1.98;;
18879;SDS011;9572;52.378;13.404;2023-10-09T02:06:31;3.78;;;2.40;;
18879;SDS011;9572;52.378;13.404;2023-10-09T02:08:58;2.75;;;2.00;;
18879;SDS011;9572;52.378;13.404;2023-10-09T02:11:25;2.78;;;1.98;;
18879;SDS011;9572;52.378;13.404;2023-10-09T02:14:05;3.20;;;2.40;;
18879;SDS011;9572;52.378;13.404;2023-10-09T02:16:44;4.05;;;2.35;;
18879;SDS011;9572;52.378;13.404;2023-10-09T02:19:28;3.97;;;2.40;;
18879;SDS011;9572;52.378;13.404;2023-10-09T02:21:59;4.50;;;2.70;;
18879;SDS011;9572;52.378;13.404;2023-10-09T02:24:37;4.07;;;2.42;;
18879;SDS011;9572;52.378;13.404;2023-10-09T02:27:19;5.37;;;2.40;;
18879;SDS011;9572;52.378;13.404;2023-10-09T02:30:07;5.03;;;2.70;;
18879;SDS011;9572;52.378;13.404;2023-10-09T02:32:41;8.30;;;2.83;;
18879;SDS011;9572;52.378;13.404;2023-10-09T02:35:13;6.70;;;3.23;;
18879;SDS011;9572;52.378;13.404;2023-10-09T02:38:01;5.35;;;3.10;;
18879;SDS011;9572;52.378;13.404;2023-10-09T02:40:39;6.20;;;2.63;;
18879;SDS011;9572;52.378;13.404;2023-10-09T02:43:12;7.10;;;3.45;;
18879;SDS011;9572;52.378;13.404;2023-10-09T02:45:49;6.70;;;3.03;;
18879;SDS011;9572;52.378;13.404;2023-10-09T02:48:17;4.03;;;2.33;;
18879;SDS011;9572;52.378;13.404;2023-10-09T02:50:46;6.13;;;3.20;;
18879;SDS011;9572;52.378;13.404;2023-10-09T02:53:16;6.05;;;3.25;;
18879;SDS011;9572;52.378;13.404;2023-10-09T02:55:54;6.53;;;3.10;;
18879;SDS011;9572;52.378;13.404;2023-10-09T03:03:49;6.47;;;3.28;;
18879;SDS011;9572;52.378;13.404;2023-10-09T03:06:16;8.17;;;3.27;;
18879;SDS011;9572;52.378;13.404;2023-10-09T03:08:50;7.53;;;3.38;;
18879;SDS011;9572;52.378;13.404;2023-10-09T03:11:19;6.95;;;3.70;;
18879;SDS011;9572;52.378;13.404;2023-10-09T03:13:46;8.87;;;3.73;;
18879;SDS011;9572;52.378;13.404;2023-10-09T03:16:14;7.80;;;3.70;;
18879;SDS011;9572;52.378;13.404;2023-10-09T03:18:44;8.13;;;3.40;;
18879;SDS011;9572;52.378;13.404;2023-10-09T03:21:13;6.93;;;3.72;;
18879;SDS011;9572;52.378;13.404;2023-10-09T03:23:42;5.03;;;3.30;;
18879;SDS011;9572;52.378;13.404;2023-10-09T03:26:14;5.43;;;3.13;;
18879;SDS011;9572;52.378;13.404;2023-10-09T03:28:43;6.95;;;3.67;;
18879;SDS011;9572;52.378;13.404;2023-10-09T03:31:12;5.18;;;3.03;;
18879;SDS011;9572;52.378;13.404;2023-10-09T03:33:39;7.85;;;3.55;;
18879;SDS011;9572;52.378;13.404;2023-10-09T03:36:09;4.80;;;3.40;;
18879;SDS011;9572;52.378;13.404;2023-10-09T03:38:36;8.20;;;4.17;;
18879;SDS011;9572;52.378;13.404;2023-10-09T03:41:03;6.65;;;3.08;;
18879;SDS011;9572;52.378;13.404;2023-10-09T03:43:32;7.18;;;3.53;;
18879;SDS011;9572;52.378;13.404;2023-10-09T03:46:08;5.17;;;3.63;;
18879;SDS011;9572;52.378;13.404;2023-10-09T03:48:45;6.68;;;3.60;;
18879;SDS011;9572;52.378;13.404;2023-10-09T03:51:19;5.57;;;3.85;;
18879;SDS011;9572;52.378;13.404;2023-10-09T03:53:49;6.05;;;3.72;;
18879;SDS011;9572;52.378;13.404;2023-10-09T03:56:17;6.00;;;3.97;;
18879;SDS011;9572;52.378;13.404;2023-10-09T03:58:48;7.97;;;4.50;;
18879;SDS011;9572;52.378;13.404;2023-10-09T04:01:18;8.25;;;4.07;;
18879;SDS011;9572;52.378;13.404;2023-10-09T04:03:59;7.70;;;3.93;;
18879;SDS011;9572;52.378;13.404;2023-10-09T04:06:40;8.18;;;3.65;;
18879;SDS011;9572;52.378;13.404;2023-10-09T06:22:27;3.67;;;3.00;;
18879;SDS011;9572;52.378;13.404;2023-10-09T06:25:10;5.47;;;3.28;;
18879;SDS011;9572;52.378;13.404;2023-10-09T06:27:42;6.57;;;3.25;;
18879;SDS011;9572;52.378;13.404;2023-10-09T06:30:26;3.25;;;2.85;;
18879;SDS011;9572;52.378;13.404;2023-10-09T06:32:59;4.82;;;3.63;;
18879;SDS011;9572;52.378;13.404;2023-10-09T06:35:49;5.03;;;3.20;;
18879;SDS011;9572;52.378;13.404;2023-10-09T06:38:37;9.53;;;3.53;;
18879;SDS011;9572;52.378;13.404;2023-10-09T06:41:17;11.20;;;5.88;;
18879;SDS011;9572;52.378;13.404;2023-10-09T06:44:02;11.33;;;4.37;;
18879;SDS011;9572;52.378;13.404;2023-10-09T06:46:31;5.45;;;3.50;;
18879;SDS011;9572;52.378;13.404;2023-10-09T06:49:09;7.47;;;3.90;;
18879;SDS011;9572;52.378;13.404;2023-10-09T06:51:54;5.93;;;4.28;;
18879;SDS011;9572;52.378;13.404;2023-10-09T06:54:35;5.28;;;3.47;;
18879;SDS011;9572;52.378;13.404;2023-10-09T06:57:03;5.40;;;4.13;;
18879;SDS011;9572;52.378;13.404;2023-10-09T07:00:02;6.57;;;4.33;;
18879;SDS011;9572;52.378;13.404;2023-10-09T07:02:49;5.82;;;3.88;;
18879;SDS011;9572;52.378;13.404;2023-10-09T07:05:18;6.47;;;3.78;;
18879;SDS011;9572;52.378;13.404;2023-10-09T07:07:45;7.40;;;4.30;;
18879;SDS011;9572;52.378;13.404;2023-10-09T07:10:22;6.20;;;3.72;;
18879;SDS011;9572;52.378;13.404;2023-10-09T07:13:04;6.30;;;3.80;;
18879;SDS011;9572;52.378;13.404;2023-10-09T07:15:30;5.82;;;3.63;;
18879;SDS011;9572;52.378;13.404;2023-10-09T07:18:14;5.40;;;3.65;;
18879;SDS011;9572;52.378;13.404;2023-10-09T07:20:48;4.60;;;3.58;;
18879;SDS011;9572;52.378;13.404;2023-10-09T07:23:26;4.55;;;3.58;;
18879;SDS011;9572;52.378;13.404;2023-10-09T07:26:05;3.28;;;2.83;;
18879;SDS011;9572;52.378;13.404;2023-10-09T07:28:48;6.72;;;4.80;;
18879;SDS011;9572;52.378;13.404;2023-10-09T07:31:18;8.20;;;3.92;;
18879;SDS011;9572;52.378;13.404;2023-10-09T07:34:04;6.72;;;3.88;;
18879;SDS011;9572;52.378;13.404;2023-10-09T07:36:52;5.90;;;3.70;;
18879;SDS011;9572;52.378;13.404;2023-10-09T07:39:21;5.95;;;3.83;;
18879;SDS011;9572;52.378;13.404;2023-10-09T07:41:50;4.97;;;3.50;;
18879;SDS011;9572;52.378;13.404;2023-10-09T07:44:27;6.43;;;3.90;;
18879;SDS011;9572;52.378;13.404;2023-10-09T07:47:03;5.78;;;3.72;;
18879;SDS011;9572;52.378;13.404;2023-10-09T07:49:42;4.15;;;3.03;;
18879;SDS011;9572;52.378;13.404;2023-10-09T07:52:13;7.00;;;3.92;;
18879;SDS011;9572;52.378;13.404;2023-10-09T07:54:42;3.78;;;2.72;;
18879;SDS011;9572;52.378;13.404;2023-10-09T07:57:16;8.30;;;3.90;;
18879;SDS011;9572;52.378;13.404;2023-10-09T07:59:44;6.53;;;3.10;;
18879;SDS011;9572;52.378;13.404;2023-10-09T08:02:26;5.30;;;3.15;;
18879;SDS011;9572;52.378;13.404;2023-10-09T08:04:58;6.93;;;3.35;;
18879;SDS011;9572;52.378;13.404;2023-10-09T08:07:31;4.88;;;2.55;;
18879;SDS011;9572;52.378;13.404;2023-10-09T08:10:02;5.35;;;3.00;;
18879;SDS011;9572;52.378;13.404;2023-10-09T08:12:49;6.68;;;3.42;;
18879;SDS011;9572;52.378;13.404;2023-10-09T08:15:44;4.63;;;3.60;;
18879;SDS011;9572;52.378;13.404;2023-10-09T08:18:17;5.65;;;3.60;;
18879;SDS011;9572;52.378;13.404;2023-10-09T08:20:53;3.22;;;2.83;;
18879;SDS011;9572;52.378;13.404;2023-10-09T08:23:34;5.53;;;3.00;;
18879;SDS011;9572;52.378;13.404;2023-10-09T08:26:13;4.55;;;3.05;;
18879;SDS011;9572;52.378;13.404;2023-10-09T08:28:55;5.68;;;2.85;;
18879;SDS011;9572;52.378;13.404;2023-10-09T08:31:41;5.18;;;2.70;;
18879;SDS011;9572;52.378;13.404;2023-10-09T08:34:12;6.70;;;3.00;;
18879;SDS011;9572;52.378;13.404;2023-10-09T08:36:49;3.50;;;2.72;;
18879;SDS011;9572;52.378;13.404;2023-10-09T08:39:17;4.88;;;2.83;;
18879;SDS011;9572;52.378;13.404;2023-10-09T08:41:50;5.25;;;3.40;;
18879;SDS011;9572;52.378;13.404;2023-10-09T08:44:20;4.75;;;3.15;;
18879;SDS011;9572;52.378;13.404;2023-10-09T08:46:50;6.00;;;3.08;;
18879;SDS011;9572;52.378;13.404;2023-10-09T08:49:18;6.55;;;3.40;;
18879;SDS011;9572;52.378;13.404;2023-10-09T08:51:46;4.00;;;2.90;;
18879;SDS011;9572;52.378;13.404;2023-10-09T08:54:14;4.30;;;3.20;;
18879;SDS011;9572;52.378;13.404;2023-10-09T08:56:41;4.15;;;3.00;;
18879;SDS011;9572;52.378;13.404;2023-10-09T08:59:14;3.60;;;2.75;;
18879;SDS011;9572;52.378;13.404;2023-10-09T09:01:44;4.53;;;3.03;;
18879;SDS011;9572;52.378;13.404;2023-10-09T09:04:33;5.50;;;2.92;;
18879;SDS011;9572;52.378;13.404;2023-10-09T09:07:00;5.05;;;3.22;;
18879;SDS011;9572;52.378;13.404;2023-10-09T09:09:27;5.90;;;3.55;;
18879;SDS011;9572;52.378;13.404;2023-10-09T09:11:57;3.70;;;2.80;;
18879;SDS011;9572;52.378;13.404;2023-10-09T09:14:34;4.30;;;3.22;;
18879;SDS011;9572;52.378;13.404;2023-10-09T09:17:04;6.47;;;3.30;;
18879;SDS011;9572;52.378;13.404;2023-10-09T09:19:36;9.82;;;3.60;;
18879;SDS011;9572;52.378;13.404;2023-10-09T09:22:04;5.78;;;3.88;;
18879;SDS011;9572;52.378;13.404;2023-10-09T09:24:38;6.93;;;4.05;;
18879;SDS011;9572;52.378;13.404;2023-10-09T09:27:11;5.13;;;3.70;;
18879;SDS011;9572;52.378;13.404;2023-10-09T09:29:44;5.70;;;3.60;;
18879;SDS011;9572;52.378;13.404;2023-10-09T09:32:26;5.03;;;3.75;;
18879;SDS011;9572;52.378;13.404;2023-10-09T09:35:00;4.13;;;3.45;;
18879;SDS011;9572;52.378;13.404;2023-10-09T09:37:29;9.77;;;4.97;;
18879;SDS011;9572;52.378;13.404;2023-10-09T09:40:15;5.90;;;4.40;;
18879;SDS011;9572;52.378;13.404;2023-10-09T09:42:54;7.60;;;4.60;;
18879;SDS011;9572;52.378;13.404;2023-10-09T09:45:30;5.35;;;4.55;;
18879;SDS011;9572;52.378;13.404;2023-10-09T09:48:00;8.25;;;5.43;;
18879;SDS011;9572;52.378;13.404;2023-10-09T09:50:31;7.72;;;5.00;;
18879;SDS011;9572;52.378;13.404;2023-10-09T09:52:58;9.10;;;4.43;;
18879;SDS011;9572;52.378;13.404;2023-10-09T09:55:26;6.25;;;4.15;;
18879;SDS011;9572;52.378;13.404;2023-10-09T09:58:00;7.50;;;4.65;;
18879;SDS011;9572;52.378;13.404;2023-10-09T10:00:31;6.93;;;4.70;;
18879;SDS011;9572;52.378;13.404;2023-10-09T10:03:10;7.78;;;4.85;;
18879;SDS011;9572;52.378;13.404;2023-10-09T10:05:39;5.57;;;4.97;;
18879;SDS011;9572;52.378;13.404;2023-10-09T10:08:11;5.53;;;4.93;;
18879;SDS011;9572;52.378;13.404;2023-10-09T10:10:45;8.93;;;5.00;;
18879;SDS011;9572;52.378;13.404;2023-10-09T10:13:18;6.53;;;4.50;;
18879;SDS011;9572;52.378;13.404;2023-10-09T10:16:21;6.72;;;4.88;;
18879;SDS011;9572;52.378;13.404;2023-10-09T10:18:56;6.30;;;4.97;;
18879;SDS011;9572;52.378;13.404;2023-10-09T10:21:32;7.35;;;4.90;;
18879;SDS011;9572;52.378;13.404;2023-10-09T10:24:04;6.85;;;4.70;;
18879;SDS011;9572;52.378;13.404;2023-10-09T10:29:43;5.32;;;4.72;;
18879;SDS011;9572;52.378;13.404;2023-10-09T10:32:11;8.23;;;5.03;;
18879;SDS011;9572;52.378;13.404;2023-10-09T10:34:59;6.90;;;4.50;;
18879;SDS011;9572;52.378;13.404;2023-10-09T10:37:35;7.30;;;4.95;;
18879;SDS011;9572;52.378;13.404;2023-10-09T10:40:09;6.07;;;4.15;;
18879;SDS011;9572;52.378;13.404;2023-10-09T10:43:03;4.60;;;4.00;;
18879;SDS011;9572;52.378;13.404;2023-10-09T10:45:38;4.45;;;3.13;;
18879;SDS011;9572;52.378;13.404;2023-10-09T10:48:19;4.30;;;3.63;;
18879;SDS011;9572;52.378;13.404;2023-10-09T10:51:09;5.65;;;3.38;;
18879;SDS011;9572;52.378;13.404;2023-10-09T10:53:49;5.32;;;3.42;;
18879;SDS011;9572;52.378;13.404;2023-10-09T10:56:23;5.72;;;3.88;;
18879;SDS011;9572;52.378;13.404;2023-10-09T10:59:00;9.57;;;5.15;;
18879;SDS011;9572;52.378;13.404;2023-10-09T11:01:38;5.72;;;4.05;;
18879;SDS011;9572;52.378;13.404;2023-10-09T11:04:18;6.22;;;3.72;;
18879;SDS011;9572;52.378;13.404;2023-10-09T11:07:10;6.10;;;3.58;;
18879;SDS011;9572;52.378;13.404;2023-10-09T11:09:44;5.70;;;4.05;;
18879;SDS011;9572;52.378;13.404;2023-10-09T11:12:43;6.70;;;3.45;;
18879;SDS011;9572;52.378;13.404;2023-10-09T11:15:45;5.18;;;3.53;;
18879;SDS011;9572;52.378;13.404;2023-10-09T11:18:22;4.20;;;2.95;;
18879;SDS011;9572;52.378;13.404;2023-10-09T11:20:55;6.07;;;3.10;;
18879;SDS011;9572;52.378;13.404;2023-10-09T11:23:50;7.18;;;3.50;;
18879;SDS011;9572;52.378;13.404;2023-10-09T11:26:23;4.18;;;3.17;;
18879;SDS011;9572;52.378;13.404;2023-10-09T11:29:05;6.72;;;3.30;;
18879;SDS011;9572;52.378;13.404;2023-10-09T11:31:39;5.03;;;3.38;;
18879;SDS011;9572;52.378;13.404;2023-10-09T11:34:17;7.20;;;4.00;;
18879;SDS011;9572;52.378;13.404;2023-10-09T11:36:54;5.15;;;3.83;;
18879;SDS011;9572;52.378;13.404;2023-10-09T11:39:30;5.45;;;4.00;;
18879;SDS011;9572;52.378;13.404;2023-10-09T11:42:01;5.50;;;4.00;;
18879;SDS011;9572;52.378;13.404;2023-10-09T11:44:37;5.00;;;4.05;;
18879;SDS011;9572;52.378;13.404;2023-10-09T11:47:04;5.35;;;3.90;;
18879;SDS011;9572;52.378;13.404;2023-10-09T11:49:58;6.03;;;4.70;;
18879;SDS011;9572;52.378;13.404;2023-10-09T11:52:55;6.60;;;4.25;;
18879;SDS011;9572;52.378;13.404;2023-10-09T11:55:36;5.65;;;4.03;;
18879;SDS011;9572;52.378;13.404;2023-10-09T11:58:04;5.30;;;4.20;;
18879;SDS011;9572;52.378;13.404;2023-10-09T12:00:32;6.00;;;4.10;;
18879;SDS011;9572;52.378;13.404;2023-10-09T12:03:09;4.90;;;3.92;;
18879;SDS011;9572;52.378;13.404;2023-10-09T12:05:38;8.30;;;5.30;;
18879;SDS011;9572;52.378;13.404;2023-10-09T12:08:09;7.03;;;4.88;;
18879;SDS011;9572;52.378;13.404;2023-10-09T12:10:40;8.35;;;5.50;;
18879;SDS011;9572;52.378;13.404;2023-10-09T12:13:07;6.45;;;4.80;;
18879;SDS011;9572;52.378;13.404;2023-10-09T12:15:34;8.75;;;5.65;;
18879;SDS011;9572;52.378;13.404;2023-10-09T12:18:07;7.57;;;5.45;;
18879;SDS011;9572;52.378;13.404;2023-10-09T12:20:44;9.77;;;5.85;;
18879;SDS011;9572;52.378;13.404;2023-10-09T12:23:15;6.88;;;5.25;;
18879;SDS011;9572;52.378;13.404;2023-10-09T12:29:00;5.93;;;5.32;;
18879;SDS011;9572;52.378;13.404;2023-10-09T12:31:26;7.80;;;5.90;;
18879;SDS011;9572;52.378;13.404;2023-10-09T12:33:59;7.43;;;5.65;;
18879;SDS011;9572;52.378;13.404;2023-10-09T12:36:26;9.77;;;6.13;;
18879;SDS011;9572;52.378;13.404;2023-10-09T12:38:54;7.22;;;5.45;;
18879;SDS011;9572;52.378;13.404;2023-10-09T12:41:26;8.40;;;6.50;;
18879;SDS011;9572;52.378;13.404;2023-10-09T12:44:00;9.57;;;6.43;;
18879;SDS011;9572;52.378;13.404;2023-10-09T12:46:27;11.27;;;6.63;;
18879;SDS011;9572;52.378;13.404;2023-10-09T12:48:57;12.02;;;6.20;;
18879;SDS011;9572;52.378;13.404;2023-10-09T12:51:26;10.82;;;6.93;;
18879;SDS011;9572;52.378;13.404;2023-10-09T12:53:55;6.97;;;5.72;;
18879;SDS011;9572;52.378;13.404;2023-10-09T12:56:26;8.93;;;6.78;;
18879;SDS011;9572;52.378;13.404;2023-10-09T12:59:03;8.88;;;6.60;;
18879;SDS011;9572;52.378;13.404;2023-10-09T13:01:39;9.13;;;7.15;;
18879;SDS011;9572;52.378;13.404;2023-10-09T13:04:17;9.43;;;6.53;;
18879;SDS011;9572;52.378;13.404;2023-10-09T13:06:47;8.75;;;6.88;;
18879;SDS011;9572;52.378;13.404;2023-10-09T13:09:18;9.55;;;7.47;;
18879;SDS011;9572;52.378;13.404;2023-10-09T13:11:58;9.52;;;6.55;;
18879;SDS011;9572;52.378;13.404;2023-10-09T13:14:30;8.88;;;6.82;;
18879;SDS011;9572;52.378;13.404;2023-10-09T13:17:00;9.93;;;7.10;;
18879;SDS011;9572;52.378;13.404;2023-10-09T13:19:33;8.10;;;6.93;;
18879;SDS011;9572;52.378;13.404;2023-10-09T13:22:05;9.15;;;7.18;;
18879;SDS011;9572;52.378;13.404;2023-10-09T13:24:38;13.40;;;7.13;;
18879;SDS011;9572;52.378;13.404;2023-10-09T13:27:07;12.20;;;7.55;;
18879;SDS011;9572;52.378;13.404;2023-10-09T13:29:39;11.77;;;8.32;;
18879;SDS011;9572;52.378;13.404;2023-10-09T13:32:06;10.43;;;6.97;;
18879;SDS011;9572;52.378;13.404;2023-10-09T13:34:39;8.18;;;6.95;;
18879;SDS011;9572;52.378;13.404;2023-10-09T13:37:21;8.98;;;6.32;;
18879;SDS011;9572;52.378;13.404;2023-10-09T13:39:57;12.93;;;7.05;;
18879;SDS011;9572;52.378;13.404;2023-10-09T13:42:33;6.95;;;5.88;;
18879;SDS011;9572;52.378;13.404;2023-10-09T13:45:10;10.50;;;7.15;;
18879;SDS011;9572;52.378;13.404;2023-10-09T13:50:16;8.65;;;6.55;;
18879;SDS011;9572;52.378;13.404;2023-10-09T13:52:46;10.82;;;6.32;;
18879;SDS011;9572;52.378;13.404;2023-10-09T13:55:13;8.25;;;6.22;;
18879;SDS011;9572;52.378;13.404;2023-10-09T13:57:41;9.25;;;7.30;;
18879;SDS011;9572;52.378;13.404;2023-10-09T14:00:12;10.20;;;7.10;;
18879;SDS011;9572;52.378;13.404;2023-10-09T14:02:44;11.88;;;6.95;;
18879;SDS011;9572;52.378;13.404;2023-10-09T14:05:11;6.97;;;5.80;;
18879;SDS011;9572;52.378;13.404;2023-10-09T14:07:44;8.30;;;6.40;;
18879;SDS011;9572;52.378;13.404;2023-10-09T14:10:40;9.25;;;5.97;;
18879;SDS011;9572;52.378;13.404;2023-10-09T14:13:07;8.70;;;5.68;;
18879;SDS011;9572;52.378;13.404;2023-10-09T14:15:39;10.13;;;6.63;;
18879;SDS011;9572;52.378;13.404;2023-10-09T14:18:08;10.38;;;6.75;;
18879;SDS011;9572;52.378;13.404;2023-10-09T14:20:36;12.70;;;7.05;;
18879;SDS011;9572;52.378;13.404;2023-10-09T14:23:06;7.88;;;6.40;;
18879;SDS011;9572;52.378;13.404;2023-10-09T14:25:46;9.90;;;6.38;;
18879;SDS011;9572;52.378;13.404;2023-10-09T14:31:00;6.63;;;4.93;;
18879;SDS011;9572;52.378;13.404;2023-10-09T14:33:29;10.38;;;6.32;;
18879;SDS011;9572;52.378;13.404;2023-10-09T14:36:01;11.88;;;6.90;;
18879;SDS011;9572;52.378;13.404;2023-10-09T14:38:31;7.30;;;5.40;;
18879;SDS011;9572;52.378;13.404;2023-10-09T14:40:58;9.55;;;6.25;;
18879;SDS011;9572;52.378;13.404;2023-10-09T14:43:25;8.32;;;6.40;;
18879;SDS011;9572;52.378;13.404;2023-10-09T14:45:59;7.07;;;5.32;;
18879;SDS011;9572;52.378;13.404;2023-10-09T14:48:26;7.28;;;5.97;;
18879;SDS011;9572;52.378;13.404;2023-10-09T14:50:54;6.47;;;5.50;;
18879;SDS011;9572;52.378;13.404;2023-10-09T14:53:29;10.07;;;5.90;;
18879;SDS011;9572;52.378;13.404;2023-10-09T14:55:59;8.80;;;6.15;;
18879;SDS011;9572;52.378;13.404;2023-10-09T14:58:28;8.57;;;5.95;;
18879;SDS011;9572;52.378;13.404;2023-10-09T15:00:57;7.65;;;5.75;;
18879;SDS011;9572;52.378;13.404;2023-10-09T15:03:37;7.55;;;5.90;;
18879;SDS011;9572;52.378;13.404;2023-10-09T15:06:05;7.43;;;6.10;;
18879;SDS011;9572;52.378;13.404;2023-10-09T15:08:36;5.60;;;5.00;;
18879;SDS011;9572;52.378;13.404;2023-10-09T15:11:05;11.63;;;6.45;;
18879;SDS011;9572;52.378;13.404;2023-10-09T15:13:34;8.65;;;6.15;;
18879;SDS011;9572;52.378;13.404;2023-10-09T15:16:05;9.55;;;6.45;;
18879;SDS011;9572;52.378;13.404;2023-10-09T15:18:39;8.55;;;6.93;;
18879;SDS011;9572;52.378;13.404;2023-10-09T15:21:06;7.88;;;6.32;;
18879;SDS011;9572;52.378;13.404;2023-10-09T15:23:34;10.05;;;6.18;;
18879;SDS011;9572;52.378;13.404;2023-10-09T15:26:04;9.90;;;6.60;;
18879;SDS011;9572;52.378;13.404;2023-10-09T15:28:35;9.10;;;6.45;;
18879;SDS011;9572;52.378;13.404;2023-10-09T15:31:07;7.15;;;5.80;;
18879;SDS011;9572;52.378;13.404;2023-10-09T15:33:40;7.50;;;6.57;;
18879;SDS011;9572;52.378;13.404;2023-10-09T15:36:12;8.55;;;6.80;;
18879;SDS011;9572;52.378;13.404;2023-10-09T15:38:50;8.48;;;6.60;;
18879;SDS011;9572;52.378;13.404;2023-10-09T15:41:18;7.88;;;6.70;;
18879;SDS011;9572;52.378;13.404;2023-10-09T15:43:46;8.07;;;6.82;;
18879;SDS011;9572;52.378;13.404;2023-10-09T15:46:14;8.05;;;6.78;;
18879;SDS011;9572;52.378;13.404;2023-10-09T15:49:10;9.05;;;6.72;;
18879;SDS011;9572;52.378;13.404;2023-10-09T15:51:40;9.80;;;6.75;;
18879;SDS011;9572;52.378;13.404;2023-10-09T15:54:12;11.65;;;7.65;;
18879;SDS011;9572;52.378;13.404;2023-10-09T15:56:43;11.30;;;7.97;;
18879;SDS011;9572;52.378;13.404;2023-10-09T15:59:12;10.32;;;7.82;;
18879;SDS011;9572;52.378;13.404;2023-10-09T16:01:41;10.23;;;7.68;;
18879;SDS011;9572;52.378;13.404;2023-10-09T16:04:10;9.77;;;8.20;;
18879;SDS011;9572;52.378;13.404;2023-10-09T16:06:37;12.52;;;9.48;;
18879;SDS011;9572;52.378;13.404;2023-10-09T16:09:05;11.68;;;8.65;;
18879;SDS011;9572;52.378;13.404;2023-10-09T16:11:38;9.80;;;8.57;;
18879;SDS011;9572;52.378;13.404;2023-10-09T16:14:35;12.00;;;8.40;;
18879;SDS011;9572;52.378;13.404;2023-10-09T16:17:18;11.18;;;7.75;;
18879;SDS011;9572;52.378;13.404;2023-10-09T16:29:41;10.80;;;8.00;;
18879;SDS011;9572;52.378;13.404;2023-10-09T16:32:56;9.55;;;8.38;;
18879;SDS011;9572;52.378;13.404;2023-10-09T16:35:17;12.18;;;8.90;;
18879;SDS011;9572;52.378;13.404;2023-10-09T16:37:47;12.02;;;8.95;;
18879;SDS011;9572;52.378;13.404;2023-10-09T16:40:18;10.30;;;8.10;;
18879;SDS011;9572;52.378;13.404;2023-10-09T16:42:47;11.27;;;8.15;;
18879;SDS011;9572;52.378;13.404;2023-10-09T16:45:28;12.85;;;8.57;;
18879;SDS011;9572;52.378;13.404;2023-10-09T16:48:01;9.60;;;7.95;;
18879;SDS011;9572;52.378;13.404;2023-10-09T16:50:30;10.88;;;8.25;;
18879;SDS011;9572;52.378;13.404;2023-10-09T16:52:59;9.48;;;7.97;;
18879;SDS011;9572;52.378;13.404;2023-10-09T16:55:29;9.80;;;8.60;;
18879;SDS011;9572;52.378;13.404;2023-10-09T16:57:56;13.57;;;9.35;;
18879;SDS011;9572;52.378;13.404;2023-10-09T17:00:23;13.73;;;9.63;;
18879;SDS011;9572;52.378;13.404;2023-10-09T17:02:55;12.85;;;9.15;;
18879;SDS011;9572;52.378;13.404;2023-10-09T17:05:23;12.25;;;9.07;;
18879;SDS011;9572;52.378;13.404;2023-10-09T17:07:57;12.43;;;9.98;;
18879;SDS011;9572;52.378;13.404;2023-10-09T17:10:25;12.38;;;9.10;;
18879;SDS011;9572;52.378;13.404;2023-10-09T17:12:52;12.48;;;8.50;;
18879;SDS011;9572;52.378;13.404;2023-10-09T17:15:20;11.68;;;9.32;;
18879;SDS011;9572;52.378;13.404;2023-10-09T17:17:47;8.98;;;8.05;;
18879;SDS011;9572;52.378;13.404;2023-10-09T17:20:17;9.68;;;8.18;;
18879;SDS011;9572;52.378;13.404;2023-10-09T17:22:46;11.75;;;8.82;;
18879;SDS011;9572;52.378;13.404;2023-10-09T17:25:14;10.45;;;8.45;;
18879;SDS011;9572;52.378;13.404;2023-10-09T17:27:42;14.02;;;10.02;;
18879;SDS011;9572;52.378;13.404;2023-10-09T17:30:10;12.38;;;9.93;;
18879;SDS011;9572;52.378;13.404;2023-10-09T17:32:40;12.43;;;10.13;;
18879;SDS011;9572;52.378;13.404;2023-10-09T17:35:10;12.32;;;9.40;;
18879;SDS011;9572;52.378;13.404;2023-10-09T17:37:39;11.23;;;8.73;;
18879;SDS011;9572;52.378;13.404;2023-10-09T17:40:07;10.43;;;9.10;;
18879;SDS011;9572;52.378;13.404;2023-10-09T17:42:35;12.05;;;9.57;;
18879;SDS011;9572;52.378;13.404;2023-10-09T17:45:06;12.65;;;9.73;;
18879;SDS011;9572;52.378;13.404;2023-10-09T17:47:34;12.80;;;9.55;;
18879;SDS011;9572;52.378;13.404;2023-10-09T17:50:02;11.05;;;8.93;;
18879;SDS011;9572;52.378;13.404;2023-10-09T17:52:29;8.95;;;7.72;;
18879;SDS011;9572;52.378;13.404;2023-10-09T17:55:01;10.63;;;8.68;;
18879;SDS011;9572;52.378;13.404;2023-10-09T17:57:32;10.23;;;8.10;;
18879;SDS011;9572;52.378;13.404;2023-10-09T17:59:59;12.02;;;9.25;;
18879;SDS011;9572;52.378;13.404;2023-10-09T18:02:26;10.65;;;8.45;;
18879;SDS011;9572;52.378;13.404;2023-10-09T18:04:54;9.93;;;8.57;;
18879;SDS011;9572;52.378;13.404;2023-10-09T18:07:21;12.48;;;8.88;;
18879;SDS011;9572;52.378;13.404;2023-10-09T18:09:48;11.13;;;8.85;;
18879;SDS011;9572;52.378;13.404;2023-10-09T18:12:19;12.35;;;8.43;;
18879;SDS011;9572;52.378;13.404;2023-10-09T18:14:47;11.38;;;8.70;;
18879;SDS011;9572;52.378;13.404;2023-10-09T18:17:17;12.85;;;9.05;;
18879;SDS011;9572;52.378;13.404;2023-10-09T18:19:45;11.20;;;8.82;;